Time;durP1;ratioP1;P1;durP2;ratioP2;P2;SDS_P1;SDS_P2;PMS_P1;PMS_P2;Temp;Humidity;BMP_temperature;BMP_pressure;BME280_temperature;BME280_humidity;BME280_pressure;Samples;Min_cycle;Max_cycle;Signal;HPM_P1;HPM_P2
2023/09/02 00:00:16;;;;;;;;;;;16.40;99.90;;;;;;2058453;28;19976;-76
2023/09/02 00:01:17;;;;;;;;;;;16.40;99.90;;;;;;2055437;28;20276;-76
2023/09/02 00:02:17;;;;;;;;;;;16.40;99.90;;;;;;2063343;28;19918;-76
2023/09/02 00:03:18;;;;;;;;;;;16.40;99.90;;;;;;2073542;28;20248;-75
2023/09/02 00:04:18;;;;;;;;;;;16.30;99.90;;;;;;2072668;28;19920;-74
2023/09/02 00:05:19;;;;;;;;;;;16.30;99.90;;;;;;2074744;28;20263;-74
2023/09/02 00:06:19;;;;;;;;;;;16.30;99.90;;;;;;2074963;28;20445;-74
2023/09/02 00:07:19;;;;;;;;;;;16.30;99.90;;;;;;2073442;28;19920;-73
2023/09/02 00:08:20;;;;;;;;;;;16.30;99.90;;;;;;2071799;28;20014;-73
2023/09/02 00:09:20;;;;;;;;;;;16.30;99.90;;;;;;2066602;28;20388;-75
2023/09/02 00:10:21;;;;;;;;;;;16.30;99.90;;;;;;2064333;28;20008;-75
2023/09/02 00:11:21;;;;;;;;;;;16.30;99.90;;;;;;2077758;28;19917;-76
2023/09/02 00:12:22;;;;;;;;;;;16.30;99.90;;;;;;2072394;28;20023;-76
2023/09/02 00:13:22;;;;;;;;;;;16.30;99.90;;;;;;2072055;28;19920;-73
2023/09/02 00:14:23;;;;;;;;;;;16.30;99.90;;;;;;2074859;28;20178;-74
2023/09/02 00:15:23;;;;;;;;;;;16.30;99.90;;;;;;2074488;28;19966;-74
2023/09/02 00:16:24;;;;;;;;;;;16.30;99.90;;;;;;2075503;28;19917;-74
2023/09/02 00:17:24;;;;;;;;;;;16.30;99.90;;;;;;2071894;28;20277;-72
2023/09/02 00:18:25;;;;;;;;;;;16.30;99.90;;;;;;2074583;28;20051;-74
2023/09/02 00:19:25;;;;;;;;;;;16.30;99.90;;;;;;2066098;28;20415;-75
2023/09/02 00:20:26;;;;;;;;;;;16.30;99.90;;;;;;2073275;28;19959;-75
2023/09/02 00:21:26;;;;;;;;;;;16.40;99.90;;;;;;2066549;28;19979;-74
2023/09/02 00:22:30;;;;;;;;;;;16.30;99.90;;;;;;2071468;28;19917;-76
2023/09/02 00:23:31;;;;;;;;;;;16.40;99.90;;;;;;2071508;28;20391;-72
2023/09/02 00:24:35;;;;;;;;;;;16.40;99.90;;;;;;2075239;28;20410;-74
2023/09/02 00:25:36;;;;;;;;;;;16.40;99.90;;;;;;2073218;28;19917;-75
2023/09/02 00:26:36;;;;;;;;;;;16.40;99.90;;;;;;2072135;28;19924;-72
2023/09/02 00:27:36;;;;;;;;;;;16.40;99.90;;;;;;2071609;28;20412;-73
2023/09/02 00:28:37;;;;;;;;;;;16.40;99.90;;;;;;2079037;28;19924;-74
2023/09/02 00:29:38;;;;;;;;;;;16.30;99.90;;;;;;2080612;28;19935;-74
2023/09/02 00:30:38;;;;;;;;;;;16.40;99.90;;;;;;2075174;28;19921;-75
2023/09/02 00:31:39;;;;;;;;;;;16.40;99.90;;;;;;2073317;28;19917;-74
2023/09/02 00:32:39;;;;;;;;;;;16.40;99.90;;;;;;2069231;28;19987;-75
2023/09/02 00:33:40;;;;;;;;;;;16.40;99.90;;;;;;2073993;28;19920;-73
2023/09/02 00:34:40;;;;;;;;;;;16.40;99.90;;;;;;2074507;28;19914;-73
2023/09/02 00:35:41;;;;;;;;;;;16.40;99.90;;;;;;2070421;28;20604;-73
2023/09/02 00:36:42;;;;;;;;;;;16.40;99.90;;;;;;2066439;28;19925;-74
2023/09/02 00:37:43;;;;;;;;;;;16.40;99.90;;;;;;2070964;28;20602;-74
2023/09/02 00:38:43;;;;;;;;;;;16.40;99.90;;;;;;2070657;28;20337;-72
2023/09/02 00:39:44;;;;;;;;;;;16.40;99.90;;;;;;2074497;28;19978;-72
2023/09/02 00:40:50;;;;;;;;;;;16.40;99.90;;;;;;2071827;28;19971;-72
2023/09/02 00:41:55;;;;;;;;;;;16.40;99.90;;;;;;2075616;28;20159;-72
2023/09/02 00:42:57;;;;;;;;;;;16.40;99.90;;;;;;2074272;28;20003;-71
2023/09/02 00:43:58;;;;;;;;;;;16.40;99.90;;;;;;2073297;28;19913;-71
2023/09/02 00:45:00;;;;;;;;;;;16.40;99.90;;;;;;2074497;28;19921;-71
2023/09/02 00:46:00;;;;;;;;;;;16.40;99.90;;;;;;2075899;28;19956;-72
2023/09/02 00:47:04;;;;;;;;;;;16.40;99.90;;;;;;2075473;28;19999;-72
2023/09/02 00:48:04;;;;;;;;;;;16.40;99.90;;;;;;2075624;28;19949;-72
2023/09/02 00:49:05;;;;;;;;;;;16.40;99.90;;;;;;2075323;28;19913;-75
2023/09/02 00:50:06;;;;;;;;;;;16.50;99.90;;;;;;2071472;28;19914;-74
2023/09/02 00:51:06;;;;;;;;;;;16.50;99.90;;;;;;2070392;28;19983;-74
2023/09/02 00:52:07;;;;;;;;;;;16.50;99.90;;;;;;2076313;28;20439;-75
2023/09/02 00:53:07;;;;;;;;;;;16.50;99.90;;;;;;2084124;28;19931;-74
2023/09/02 00:54:08;;;;;;;;;;;16.50;99.90;;;;;;2069960;28;19921;-74
2023/09/02 00:55:08;;;;;;;;;;;16.50;99.90;;;;;;2066862;28;19979;-73
2023/09/02 00:56:09;;;;;;;;;;;16.50;99.90;;;;;;2075661;28;19924;-75
2023/09/02 00:57:09;;;;;;;;;;;16.50;99.90;;;;;;2084375;28;20015;-74
2023/09/02 00:58:10;;;;;;;;;;;16.50;99.90;;;;;;2084169;28;20067;-74
2023/09/02 00:59:11;;;;;;;;;;;16.50;99.90;;;;;;2072127;28;19913;-73
2023/09/02 01:00:13;;;;;;;;;;;16.50;99.90;;;;;;2071744;28;20183;-73
2023/09/02 01:01:13;;;;;;;;;;;16.50;99.90;;;;;;2084149;28;20398;-73
2023/09/02 01:02:14;;;;;;;;;;;16.50;99.90;;;;;;2067696;28;20016;-73
2023/09/02 01:03:14;;;;;;;;;;;16.50;99.90;;;;;;2075698;28;20395;-74
2023/09/02 01:04:15;;;;;;;;;;;16.50;99.90;;;;;;2080494;28;19924;-71
2023/09/02 01:05:16;;;;;;;;;;;16.60;99.90;;;;;;2072920;28;19945;-74
2023/09/02 01:06:16;;;;;;;;;;;16.60;99.90;;;;;;2076345;28;19920;-73
2023/09/02 01:07:17;;;;;;;;;;;16.60;99.90;;;;;;2076099;28;19917;-72
2023/09/02 01:08:19;;;;;;;;;;;16.60;99.90;;;;;;2079717;28;20491;-73
2023/09/02 01:09:19;;;;;;;;;;;16.60;99.90;;;;;;2075721;28;19975;-74
2023/09/02 01:10:20;;;;;;;;;;;16.60;99.90;;;;;;2065444;28;19965;-74
2023/09/02 01:11:21;;;;;;;;;;;16.60;99.90;;;;;;2074970;28;20395;-73
2023/09/02 01:12:21;;;;;;;;;;;16.60;99.90;;;;;;2076004;28;19952;-74
2023/09/02 01:13:22;;;;;;;;;;;16.60;99.90;;;;;;2076389;28;20031;-73
2023/09/02 01:14:22;;;;;;;;;;;16.60;99.90;;;;;;2075277;28;19975;-71
2023/09/02 01:15:23;;;;;;;;;;;16.60;99.90;;;;;;2084012;28;19923;-76
2023/09/02 01:16:23;;;;;;;;;;;16.60;99.90;;;;;;2081301;28;20414;-75
2023/09/02 01:17:24;;;;;;;;;;;16.60;99.90;;;;;;2072021;28;20555;-76
2023/09/02 01:18:25;;;;;;;;;;;16.60;99.90;;;;;;2066843;28;19917;-74
2023/09/02 01:19:26;;;;;;;;;;;16.60;99.90;;;;;;2075982;28;20035;-75
2023/09/02 01:20:33;;;;;;;;;;;16.60;99.90;;;;;;2081930;28;20409;-75
2023/09/02 01:21:58;;;;;;;;;;;16.60;99.90;;;;;;2082146;28;19959;-74
2023/09/02 01:23:06;;;;;;;;;;;16.60;99.90;;;;;;2071048;28;19917;-75
2023/09/02 01:24:07;;;;;;;;;;;16.60;99.90;;;;;;2064670;28;19940;-75
2023/09/02 01:25:11;;;;;;;;;;;16.60;99.90;;;;;;2062586;28;19917;-74
2023/09/02 01:26:22;;;;;;;;;;;16.60;99.90;;;;;;2060444;28;20336;-73
2023/09/02 01:27:24;;;;;;;;;;;16.60;99.90;;;;;;2065982;28;19922;-76
2023/09/02 01:28:28;;;;;;;;;;;16.60;99.90;;;;;;2071593;28;19953;-74
2023/09/02 01:29:31;;;;;;;;;;;16.60;99.90;;;;;;2068067;28;19992;-74
2023/09/02 01:30:33;;;;;;;;;;;16.60;99.90;;;;;;2066541;28;20419;-73
2023/09/02 01:31:35;;;;;;;;;;;16.60;99.90;;;;;;2075719;28;20020;-75
2023/09/02 01:32:38;;;;;;;;;;;16.60;99.90;;;;;;2076281;28;19917;-74
2023/09/02 01:33:40;;;;;;;;;;;16.60;99.90;;;;;;2076846;28;19921;-74
2023/09/02 01:34:41;;;;;;;;;;;16.60;99.90;;;;;;2076354;28;20404;-73
2023/09/02 01:35:42;;;;;;;;;;;16.70;99.90;;;;;;2084151;28;19923;-74
2023/09/02 01:36:46;;;;;;;;;;;16.70;99.90;;;;;;2083776;28;20281;-74
2023/09/02 01:37:48;;;;;;;;;;;16.70;99.90;;;;;;2075680;28;19971;-73
2023/09/02 01:38:51;;;;;;;;;;;16.70;99.90;;;;;;2064641;28;19924;-72
2023/09/02 01:39:52;;;;;;;;;;;16.70;99.90;;;;;;2067100;28;19920;-75
2023/09/02 01:40:54;;;;;;;;;;;16.70;99.90;;;;;;2069170;28;20016;-73
2023/09/02 01:41:55;;;;;;;;;;;16.70;99.90;;;;;;2078768;28;19994;-73
2023/09/02 01:42:58;;;;;;;;;;;16.70;99.90;;;;;;2071736;28;20364;-74
2023/09/02 01:43:59;;;;;;;;;;;16.70;99.90;;;;;;2053557;28;19918;-73
2023/09/02 01:45:00;;;;;;;;;;;16.70;99.90;;;;;;2053733;28;19914;-76
2023/09/02 01:46:01;;;;;;;;;;;16.60;99.90;;;;;;2069806;28;19917;-73
2023/09/02 01:47:01;;;;;;;;;;;16.60;99.90;;;;;;2069463;28;19960;-73
2023/09/02 01:48:03;;;;;;;;;;;16.60;99.90;;;;;;2075959;28;19917;-74
2023/09/02 01:49:04;;;;;;;;;;;16.60;99.90;;;;;;2073112;28;19943;-73
2023/09/02 01:50:06;;;;;;;;;;;16.60;99.90;;;;;;2069255;28;20175;-73
2023/09/02 01:51:08;;;;;;;;;;;16.60;99.90;;;;;;2075371;28;20019;-74
2023/09/02 01:52:08;;;;;;;;;;;16.60;99.90;;;;;;2075915;28;19949;-74
2023/09/02 01:53:09;;;;;;;;;;;16.60;99.90;;;;;;2075471;28;19920;-74
2023/09/02 01:54:10;;;;;;;;;;;16.60;99.90;;;;;;2067537;28;19917;-74
2023/09/02 01:55:11;;;;;;;;;;;16.60;99.90;;;;;;2067348;28;19914;-74
2023/09/02 01:56:11;;;;;;;;;;;16.60;99.90;;;;;;2067659;28;20348;-74
2023/09/02 01:57:12;;;;;;;;;;;16.60;99.90;;;;;;2075623;28;20242;-73
2023/09/02 01:58:12;;;;;;;;;;;16.60;99.90;;;;;;2067880;28;20375;-74
2023/09/02 01:59:13;;;;;;;;;;;16.60;99.90;;;;;;2076069;28;20447;-74
2023/09/02 02:00:14;;;;;;;;;;;16.60;99.90;;;;;;2079888;28;19917;-74
2023/09/02 02:01:14;;;;;;;;;;;16.60;99.90;;;;;;2079835;28;19913;-73
2023/09/02 02:02:16;;;;;;;;;;;16.60;99.90;;;;;;2075652;28;19969;-73
2023/09/02 02:03:37;;;;;;;;;;;16.60;99.90;;;;;;2071940;28;19913;-73
2023/09/02 02:04:39;;;;;;;;;;;16.60;99.90;;;;;;2075607;28;19916;-73
2023/09/02 02:05:43;;;;;;;;;;;16.60;99.90;;;;;;2075641;28;20526;-74
2023/09/02 02:06:45;;;;;;;;;;;16.60;99.90;;;;;;2075496;28;19968;-74
2023/09/02 02:07:48;;;;;;;;;;;16.60;99.90;;;;;;2075877;28;19993;-74
2023/09/02 02:08:55;;;;;;;;;;;16.60;99.90;;;;;;2079969;28;19923;-74
2023/09/02 02:09:57;;;;;;;;;;;16.60;99.90;;;;;;2080561;28;20414;-74
2023/09/02 02:10:59;;;;;;;;;;;16.60;99.90;;;;;;2080174;28;20175;-75
2023/09/02 02:12:00;;;;;;;;;;;16.60;99.90;;;;;;2085483;28;19920;-74
2023/09/02 02:13:02;;;;;;;;;;;16.50;99.90;;;;;;2081333;28;19913;-73
2023/09/02 02:14:03;;;;;;;;;;;16.60;99.90;;;;;;2079983;28;19979;-72
2023/09/02 02:15:04;;;;;;;;;;;16.50;99.90;;;;;;2076623;28;20035;-73
2023/09/02 02:16:05;;;;;;;;;;;16.60;99.90;;;;;;2067356;28;20408;-73
2023/09/02 02:17:06;;;;;;;;;;;16.60;99.90;;;;;;2067082;28;20400;-74
2023/09/02 02:18:06;;;;;;;;;;;16.60;99.90;;;;;;2067575;28;20321;-74
2023/09/02 02:19:07;;;;;;;;;;;16.60;99.90;;;;;;2059031;28;20538;-74
2023/09/02 02:20:09;;;;;;;;;;;16.60;99.90;;;;;;2067340;28;19926;-73
2023/09/02 02:21:09;;;;;;;;;;;16.60;99.90;;;;;;2060517;28;19917;-74
2023/09/02 02:22:10;;;;;;;;;;;16.60;99.90;;;;;;2059499;28;20540;-74
2023/09/02 02:23:10;;;;;;;;;;;16.60;99.90;;;;;;2070435;28;19927;-74
2023/09/02 02:24:12;;;;;;;;;;;16.60;99.90;;;;;;2069446;28;19955;-73
2023/09/02 02:25:13;;;;;;;;;;;16.60;99.90;;;;;;2076540;28;20334;-73
2023/09/02 02:26:15;;;;;;;;;;;16.60;99.90;;;;;;2084286;28;20362;-74
2023/09/02 02:27:16;;;;;;;;;;;16.60;99.90;;;;;;2075441;28;20319;-74
2023/09/02 02:28:16;;;;;;;;;;;16.60;99.90;;;;;;2079083;28;19968;-73
2023/09/02 02:29:17;;;;;;;;;;;16.60;99.90;;;;;;2075265;28;19925;-74
2023/09/02 02:30:17;;;;;;;;;;;16.60;99.90;;;;;;2073606;28;20015;-73
2023/09/02 02:31:18;;;;;;;;;;;16.60;99.90;;;;;;2071559;28;19920;-73
2023/09/02 02:32:19;;;;;;;;;;;16.60;99.90;;;;;;2075336;28;19948;-74
2023/09/02 02:33:20;;;;;;;;;;;16.60;99.90;;;;;;2071333;28;19960;-73
2023/09/02 02:34:21;;;;;;;;;;;16.60;99.90;;;;;;2074213;28;19924;-74
2023/09/02 02:35:22;;;;;;;;;;;16.60;99.90;;;;;;2072965;28;20114;-74
2023/09/02 02:36:22;;;;;;;;;;;16.50;99.90;;;;;;2075957;28;20032;-75
2023/09/02 02:37:23;;;;;;;;;;;16.50;99.90;;;;;;2075492;28;19920;-73
2023/09/02 02:38:24;;;;;;;;;;;16.50;99.90;;;;;;2067164;28;19984;-73
2023/09/02 02:39:24;;;;;;;;;;;16.50;99.90;;;;;;2075479;28;19917;-73
2023/09/02 02:40:25;;;;;;;;;;;16.50;99.90;;;;;;2067325;28;20408;-74
2023/09/02 02:41:26;;;;;;;;;;;16.50;99.90;;;;;;2067104;28;19972;-73
2023/09/02 02:42:26;;;;;;;;;;;16.50;99.90;;;;;;2075399;28;19913;-73
2023/09/02 02:43:27;;;;;;;;;;;16.50;99.90;;;;;;2073311;28;19917;-73
2023/09/02 02:44:28;;;;;;;;;;;16.50;99.90;;;;;;2067183;28;19959;-73
2023/09/02 02:45:28;;;;;;;;;;;16.50;99.90;;;;;;2067136;28;20479;-73
2023/09/02 02:46:29;;;;;;;;;;;16.50;99.90;;;;;;2065614;28;19969;-74
2023/09/02 02:47:29;;;;;;;;;;;16.50;99.90;;;;;;2062847;28;19917;-74
2023/09/02 02:48:30;;;;;;;;;;;16.50;99.90;;;;;;2072888;28;20039;-73
2023/09/02 02:49:31;;;;;;;;;;;16.40;99.90;;;;;;2076082;28;19925;-73
2023/09/02 02:50:33;;;;;;;;;;;16.40;99.90;;;;;;2075085;28;19995;-74
2023/09/02 02:51:34;;;;;;;;;;;16.40;99.90;;;;;;2067319;28;19967;-73
2023/09/02 02:52:34;;;;;;;;;;;16.40;99.90;;;;;;2067038;28;19968;-73
2023/09/02 02:53:36;;;;;;;;;;;16.40;99.90;;;;;;2075166;28;19917;-74
2023/09/02 02:54:38;;;;;;;;;;;16.30;99.90;;;;;;2075030;28;19921;-74
2023/09/02 02:55:41;;;;;;;;;;;16.30;99.90;;;;;;2075365;28;20033;-75
2023/09/02 02:56:42;;;;;;;;;;;16.30;99.90;;;;;;2075568;28;19921;-74
2023/09/02 02:57:43;;;;;;;;;;;16.20;99.90;;;;;;2075767;28;19999;-74
2023/09/02 02:58:45;;;;;;;;;;;16.20;99.90;;;;;;2082902;28;20042;-72
2023/09/02 02:59:46;;;;;;;;;;;16.20;99.90;;;;;;2075096;28;20323;-73
2023/09/02 03:00:49;;;;;;;;;;;16.10;99.90;;;;;;2075441;28;19991;-75
2023/09/02 03:01:52;;;;;;;;;;;16.10;99.90;;;;;;2074830;28;20024;-72
2023/09/02 03:02:53;;;;;;;;;;;16.10;99.90;;;;;;2074359;28;19995;-73
2023/09/02 03:03:54;;;;;;;;;;;16.10;99.90;;;;;;2074771;28;19913;-72
2023/09/02 03:04:56;;;;;;;;;;;16.00;99.90;;;;;;2064063;28;20002;-72
2023/09/02 03:05:57;;;;;;;;;;;16.00;99.90;;;;;;2074857;28;20024;-73
2023/09/02 03:06:57;;;;;;;;;;;16.00;99.90;;;;;;2072640;28;19921;-73
2023/09/02 03:07:58;;;;;;;;;;;15.90;99.90;;;;;;2075967;28;19917;-73
2023/09/02 03:08:58;;;;;;;;;;;15.90;99.90;;;;;;2075644;28;19917;-72
2023/09/02 03:09:59;;;;;;;;;;;15.90;99.90;;;;;;2072651;28;20321;-74
2023/09/02 03:11:01;;;;;;;;;;;15.90;99.90;;;;;;2075272;28;20321;-74
2023/09/02 03:12:04;;;;;;;;;;;15.90;99.90;;;;;;2074934;28;20278;-74
2023/09/02 03:13:06;;;;;;;;;;;15.90;99.90;;;;;;2067017;28;20392;-74
2023/09/02 03:14:07;;;;;;;;;;;15.90;99.90;;;;;;2075183;28;19947;-73
2023/09/02 03:15:08;;;;;;;;;;;15.80;99.90;;;;;;2066447;28;19940;-73
2023/09/02 03:16:09;;;;;;;;;;;15.90;99.90;;;;;;2066996;28;24430;-73
2023/09/02 03:17:09;;;;;;;;;;;15.90;99.90;;;;;;2075039;28;19972;-73
2023/09/02 03:18:10;;;;;;;;;;;15.90;99.90;;;;;;2072071;28;20218;-73
2023/09/02 03:19:10;;;;;;;;;;;15.90;99.90;;;;;;2050726;28;20176;-73
2023/09/02 03:20:11;;;;;;;;;;;15.90;99.90;;;;;;2065777;28;20403;-73
2023/09/02 03:21:12;;;;;;;;;;;15.90;99.90;;;;;;2071867;28;19918;-73
2023/09/02 03:22:13;;;;;;;;;;;15.90;99.90;;;;;;2057987;28;19918;-73
2023/09/02 03:23:16;;;;;;;;;;;15.90;99.90;;;;;;2051033;28;19918;-74
2023/09/02 03:24:17;;;;;;;;;;;15.90;99.90;;;;;;2052814;28;19922;-74
2023/09/02 03:25:18;;;;;;;;;;;16.00;99.90;;;;;;2066829;28;20515;-74
2023/09/02 03:26:19;;;;;;;;;;;16.00;99.90;;;;;;2071372;28;19995;-74
2023/09/02 03:27:24;;;;;;;;;;;16.00;99.90;;;;;;2071274;28;20411;-73
2023/09/02 03:28:25;;;;;;;;;;;16.00;99.90;;;;;;2066867;28;20320;-72
2023/09/02 03:29:25;;;;;;;;;;;16.10;99.90;;;;;;2075125;28;19999;-73
2023/09/02 03:30:26;;;;;;;;;;;16.10;99.90;;;;;;2074884;28;19932;-74
2023/09/02 03:31:27;;;;;;;;;;;16.10;99.90;;;;;;2070039;28;19921;-74
2023/09/02 03:32:31;;;;;;;;;;;16.10;99.90;;;;;;2074866;28;20545;-73
2023/09/02 03:33:31;;;;;;;;;;;16.20;99.90;;;;;;2058674;28;19929;-72
2023/09/02 03:34:32;;;;;;;;;;;16.20;99.90;;;;;;2066840;28;19976;-73
2023/09/02 03:35:37;;;;;;;;;;;16.20;99.90;;;;;;2079089;28;19935;-73
2023/09/02 03:36:37;;;;;;;;;;;16.20;99.90;;;;;;2076455;28;19925;-72
2023/09/02 03:37:40;;;;;;;;;;;16.30;99.90;;;;;;2074916;28;19979;-72
2023/09/02 03:38:41;;;;;;;;;;;16.20;99.90;;;;;;2066851;28;19976;-72
2023/09/02 03:39:42;;;;;;;;;;;16.20;99.90;;;;;;2066565;28;20438;-72
2023/09/02 03:40:42;;;;;;;;;;;16.20;99.90;;;;;;2061000;28;19917;-72
2023/09/02 03:41:46;;;;;;;;;;;16.20;99.90;;;;;;2062541;28;19977;-72
2023/09/02 03:42:46;;;;;;;;;;;16.30;99.90;;;;;;2066905;28;19963;-73
2023/09/02 03:43:47;;;;;;;;;;;16.20;99.90;;;;;;2075111;28;20023;-73
2023/09/02 03:44:49;;;;;;;;;;;16.20;99.90;;;;;;2062873;28;19913;-72
2023/09/02 03:45:49;;;;;;;;;;;16.20;99.90;;;;;;2058390;28;19937;-72
2023/09/02 03:46:51;;;;;;;;;;;16.20;99.90;;;;;;2063131;28;20392;-72
2023/09/02 03:47:51;;;;;;;;;;;16.10;99.90;;;;;;2071817;28;20007;-73
2023/09/02 03:48:53;;;;;;;;;;;16.10;99.90;;;;;;2066356;28;19917;-73
2023/09/02 03:49:56;;;;;;;;;;;16.10;99.90;;;;;;2066783;28;19961;-73
2023/09/02 03:51:00;;;;;;;;;;;16.10;99.90;;;;;;2066606;28;19910;-73
2023/09/02 03:52:01;;;;;;;;;;;16.00;99.90;;;;;;2066649;28;20004;-73
2023/09/02 03:53:02;;;;;;;;;;;16.00;99.90;;;;;;2066974;28;19918;-72
2023/09/02 03:54:04;;;;;;;;;;;16.00;99.90;;;;;;2074901;28;20021;-73
2023/09/02 03:55:05;;;;;;;;;;;16.00;99.90;;;;;;2066827;28;20171;-73
2023/09/02 03:56:07;;;;;;;;;;;16.00;99.90;;;;;;2074915;28;19913;-73
2023/09/02 03:57:09;;;;;;;;;;;15.90;99.90;;;;;;2074221;28;19921;-73
2023/09/02 03:58:09;;;;;;;;;;;15.90;99.90;;;;;;2072400;28;20032;-73
2023/09/02 03:59:10;;;;;;;;;;;15.90;99.90;;;;;;2077056;28;19917;-73
2023/09/02 04:00:10;;;;;;;;;;;15.90;99.90;;;;;;2073281;28;19917;-72
2023/09/02 04:01:17;;;;;;;;;;;15.90;99.90;;;;;;2075132;28;19983;-73
2023/09/02 04:02:18;;;;;;;;;;;15.80;99.90;;;;;;2074975;28;19913;-72
2023/09/02 04:03:21;;;;;;;;;;;15.80;99.90;;;;;;2074360;28;19913;-73
2023/09/02 04:04:21;;;;;;;;;;;15.80;99.90;;;;;;2074528;28;20409;-73
2023/09/02 04:05:22;;;;;;;;;;;15.80;99.90;;;;;;2071264;28;19917;-73
2023/09/02 04:06:22;;;;;;;;;;;15.80;99.90;;;;;;2062234;28;19998;-73
2023/09/02 04:07:23;;;;;;;;;;;15.80;99.90;;;;;;2073913;28;19917;-72
2023/09/02 04:08:25;;;;;;;;;;;15.80;99.90;;;;;;2075397;28;19913;-73
2023/09/02 04:09:27;;;;;;;;;;;15.80;99.90;;;;;;2071938;28;20272;-73
2023/09/02 04:10:28;;;;;;;;;;;15.80;99.90;;;;;;2070599;28;19918;-72
2023/09/02 04:11:28;;;;;;;;;;;15.80;99.90;;;;;;2070612;28;20026;-72
2023/09/02 04:12:29;;;;;;;;;;;15.80;99.90;;;;;;2066038;28;19914;-72
2023/09/02 04:13:30;;;;;;;;;;;15.80;99.90;;;;;;2066593;28;19957;-73
2023/09/02 04:14:34;;;;;;;;;;;15.80;99.90;;;;;;2067137;28;19920;-73
2023/09/02 04:15:34;;;;;;;;;;;15.90;99.90;;;;;;2074632;28;19913;-73
2023/09/02 04:16:35;;;;;;;;;;;15.90;99.90;;;;;;2074482;28;19928;-73
2023/09/02 04:17:36;;;;;;;;;;;15.90;99.90;;;;;;2066405;28;19928;-73
2023/09/02 04:18:36;;;;;;;;;;;15.90;99.90;;;;;;2074641;28;20007;-75
2023/09/02 04:19:39;;;;;;;;;;;15.90;99.90;;;;;;2066721;28;20028;-75
2023/09/02 04:20:40;;;;;;;;;;;15.90;99.90;;;;;;2074959;28;20350;-74
2023/09/02 04:21:41;;;;;;;;;;;16.00;99.90;;;;;;2082982;28;19917;-75
2023/09/02 04:22:42;;;;;;;;;;;16.00;99.90;;;;;;2066541;28;20346;-73
2023/09/02 04:23:43;;;;;;;;;;;16.00;99.90;;;;;;2066654;28;19913;-75
2023/09/02 04:24:46;;;;;;;;;;;16.00;99.90;;;;;;2074607;28;20416;-74
2023/09/02 04:25:48;;;;;;;;;;;16.00;99.90;;;;;;2074672;28;19999;-74
2023/09/02 04:26:51;;;;;;;;;;;16.00;99.90;;;;;;2074598;28;20452;-74
2023/09/02 04:27:52;;;;;;;;;;;16.00;99.90;;;;;;2074859;28;19982;-74
2023/09/02 04:28:55;;;;;;;;;;;16.00;99.90;;;;;;2074941;28;19917;-74
2023/09/02 04:29:56;;;;;;;;;;;16.00;99.90;;;;;;2074721;28;19917;-75
2023/09/02 04:30:57;;;;;;;;;;;16.10;99.90;;;;;;2066836;28;19921;-74
2023/09/02 04:32:00;;;;;;;;;;;16.10;99.90;;;;;;2067078;28;19920;-73
2023/09/02 04:33:01;;;;;;;;;;;16.10;99.90;;;;;;2074706;28;20359;-74
2023/09/02 04:34:01;;;;;;;;;;;16.10;99.90;;;;;;2082166;28;19928;-74
2023/09/02 04:35:02;;;;;;;;;;;16.10;99.90;;;;;;2070356;28;19913;-74
2023/09/02 04:36:03;;;;;;;;;;;16.00;99.90;;;;;;2063088;28;20112;-74
2023/09/02 04:37:06;;;;;;;;;;;16.00;99.90;;;;;;2071616;28;19936;-73
2023/09/02 04:38:07;;;;;;;;;;;16.00;99.90;;;;;;2061364;28;19914;-75
2023/09/02 04:39:08;;;;;;;;;;;16.00;99.90;;;;;;2059902;28;20463;-73
2023/09/02 04:40:10;;;;;;;;;;;16.00;99.90;;;;;;2069093;28;19914;-74
2023/09/02 04:41:11;;;;;;;;;;;16.00;99.90;;;;;;2072398;28;19925;-73
2023/09/02 04:42:12;;;;;;;;;;;16.00;99.90;;;;;;2066264;28;19917;-73
2023/09/02 04:43:14;;;;;;;;;;;16.10;99.90;;;;;;2058439;28;19918;-73
2023/09/02 04:44:19;;;;;;;;;;;16.00;99.90;;;;;;2070760;28;21018;-73
2023/09/02 04:45:20;;;;;;;;;;;16.00;99.90;;;;;;2066601;28;20337;-73
2023/09/02 04:46:21;;;;;;;;;;;16.00;99.90;;;;;;2074331;28;20016;-73
2023/09/02 04:47:22;;;;;;;;;;;16.10;99.90;;;;;;2075574;28;19932;-73
2023/09/02 04:48:23;;;;;;;;;;;16.10;99.90;;;;;;2066345;28;20451;-73
2023/09/02 04:49:24;;;;;;;;;;;16.10;99.90;;;;;;2074499;28;19940;-73
2023/09/02 04:50:25;;;;;;;;;;;16.10;99.90;;;;;;2082771;28;19939;-73
2023/09/02 04:51:25;;;;;;;;;;;16.10;99.90;;;;;;2074218;28;19913;-73
2023/09/02 04:52:26;;;;;;;;;;;16.10;99.90;;;;;;2066493;28;19918;-73
2023/09/02 04:53:26;;;;;;;;;;;16.10;99.90;;;;;;2066654;28;19917;-72
2023/09/02 04:54:27;;;;;;;;;;;16.10;99.90;;;;;;2074490;28;20001;-72
2023/09/02 04:55:31;;;;;;;;;;;16.10;99.90;;;;;;2066411;28;19955;-73
2023/09/02 04:56:32;;;;;;;;;;;16.00;99.90;;;;;;2071209;28;19917;-72
2023/09/02 04:57:33;;;;;;;;;;;16.00;99.90;;;;;;2078250;28;19921;-72
2023/09/02 04:58:34;;;;;;;;;;;16.00;99.90;;;;;;2079389;28;19923;-72
2023/09/02 04:59:38;;;;;;;;;;;16.00;99.90;;;;;;2067355;28;19921;-72
2023/09/02 05:00:39;;;;;;;;;;;16.00;99.90;;;;;;2066401;28;19925;-73
2023/09/02 05:01:40;;;;;;;;;;;16.10;99.90;;;;;;2066317;28;19914;-72
2023/09/02 05:02:45;;;;;;;;;;;16.10;99.90;;;;;;2066096;28;20073;-73
2023/09/02 05:03:47;;;;;;;;;;;16.10;99.90;;;;;;2062562;28;19945;-72
2023/09/02 05:04:48;;;;;;;;;;;16.10;99.90;;;;;;2067716;28;20389;-72
2023/09/02 05:05:48;;;;;;;;;;;16.10;99.90;;;;;;2075504;28;20649;-72
2023/09/02 05:06:49;;;;;;;;;;;16.10;99.90;;;;;;2071258;28;19963;-73
2023/09/02 05:07:50;;;;;;;;;;;16.10;99.90;;;;;;2066858;28;19932;-73
2023/09/02 05:08:54;;;;;;;;;;;16.10;99.90;;;;;;2074121;28;19913;-73
2023/09/02 05:09:55;;;;;;;;;;;16.20;99.90;;;;;;2070168;28;20260;-75
2023/09/02 05:10:56;;;;;;;;;;;16.20;99.90;;;;;;2061624;28;20767;-74
2023/09/02 05:11:56;;;;;;;;;;;16.30;99.90;;;;;;2058540;28;19918;-72
2023/09/02 05:12:57;;;;;;;;;;;16.30;99.90;;;;;;2066393;28;19960;-75
2023/09/02 05:13:58;;;;;;;;;;;16.40;99.90;;;;;;2054293;28;19945;-72
2023/09/02 05:14:58;;;;;;;;;;;16.40;99.90;;;;;;2066292;28;19920;-72
2023/09/02 05:15:59;;;;;;;;;;;16.40;99.90;;;;;;2075239;28;20516;-73
2023/09/02 05:17:00;;;;;;;;;;;16.50;99.90;;;;;;2070211;28;20443;-74
2023/09/02 05:18:01;;;;;;;;;;;16.50;99.90;;;;;;2074601;28;19913;-72
2023/09/02 05:19:03;;;;;;;;;;;16.60;99.90;;;;;;2070271;28;20164;-73
2023/09/02 05:20:04;;;;;;;;;;;16.60;99.90;;;;;;2079191;28;20382;-73
2023/09/02 05:21:05;;;;;;;;;;;16.70;99.90;;;;;;2082773;28;20355;-73
2023/09/02 05:22:05;;;;;;;;;;;16.70;99.90;;;;;;2070442;28;19914;-73
2023/09/02 05:23:06;;;;;;;;;;;16.70;99.90;;;;;;2066185;28;20466;-73
2023/09/02 05:24:06;;;;;;;;;;;16.70;99.90;;;;;;2070125;28;20486;-72
2023/09/02 05:25:07;;;;;;;;;;;16.80;99.90;;;;;;2085834;28;19917;-72
2023/09/02 05:26:08;;;;;;;;;;;16.80;99.90;;;;;;2079408;28;19917;-73
2023/09/02 05:27:08;;;;;;;;;;;16.80;99.90;;;;;;2077689;28;20432;-75
2023/09/02 05:28:10;;;;;;;;;;;16.80;99.90;;;;;;2084025;28;21258;-74
2023/09/02 05:29:11;;;;;;;;;;;16.80;99.90;;;;;;2080081;28;19952;-73
2023/09/02 05:30:12;;;;;;;;;;;16.70;99.90;;;;;;2082154;28;19917;-74
2023/09/02 05:31:12;;;;;;;;;;;16.80;99.90;;;;;;2067744;28;19941;-74
2023/09/02 05:32:13;;;;;;;;;;;16.80;99.90;;;;;;2077185;28;19980;-74
2023/09/02 05:33:14;;;;;;;;;;;16.80;99.90;;;;;;2075815;28;20284;-73
2023/09/02 05:34:15;;;;;;;;;;;16.70;99.90;;;;;;2076696;28;19927;-73
2023/09/02 05:35:15;;;;;;;;;;;16.70;99.90;;;;;;2075611;28;19917;-73
2023/09/02 05:36:16;;;;;;;;;;;16.80;99.90;;;;;;2067634;28;20190;-73
2023/09/02 05:37:16;;;;;;;;;;;16.70;99.90;;;;;;2075923;28;19964;-73
2023/09/02 05:38:17;;;;;;;;;;;16.80;99.90;;;;;;2074026;28;19971;-73
2023/09/02 05:39:17;;;;;;;;;;;16.70;99.90;;;;;;2074830;28;19924;-73
2023/09/02 05:40:17;;;;;;;;;;;16.70;99.90;;;;;;2076311;28;19917;-72
2023/09/02 05:41:18;;;;;;;;;;;16.70;99.90;;;;;;2076748;28;19913;-73
2023/09/02 05:42:18;;;;;;;;;;;16.70;99.90;;;;;;2075772;28;19917;-73
2023/09/02 05:43:19;;;;;;;;;;;16.70;99.90;;;;;;2067668;28;19957;-72
2023/09/02 05:44:19;;;;;;;;;;;16.70;99.90;;;;;;2071934;28;19914;-73
2023/09/02 05:45:20;;;;;;;;;;;16.70;99.90;;;;;;2076442;28;20496;-73
2023/09/02 05:46:20;;;;;;;;;;;16.70;99.90;;;;;;2076383;28;20007;-73
2023/09/02 05:47:21;;;;;;;;;;;16.70;99.90;;;;;;2076751;28;20304;-73
2023/09/02 05:48:21;;;;;;;;;;;16.70;99.90;;;;;;2076455;28;19932;-73
2023/09/02 05:49:22;;;;;;;;;;;16.70;99.90;;;;;;2076435;28;19920;-73
2023/09/02 05:50:22;;;;;;;;;;;16.70;99.90;;;;;;2084232;28;19978;-73
2023/09/02 05:51:25;;;;;;;;;;;16.70;99.90;;;;;;2084188;28;20439;-73
2023/09/02 05:52:25;;;;;;;;;;;16.70;99.90;;;;;;2076587;28;20343;-73
2023/09/02 05:53:25;;;;;;;;;;;16.70;99.90;;;;;;2076356;28;19917;-73
2023/09/02 05:54:26;;;;;;;;;;;16.70;99.90;;;;;;2076343;28;20353;-72
2023/09/02 05:55:26;;;;;;;;;;;16.80;99.90;;;;;;2076217;28;20129;-72
2023/09/02 05:56:27;;;;;;;;;;;16.80;99.90;;;;;;2084157;28;20279;-73